HEGN

Hurghada International Airport

Airport
ICAO code
HEGN
IATA Code
HRG
Summary
ICAO Region
AFI
ICAO Territory
Location

Hurghada, Al Bahr al Ahmar

Serving
Hurghada
Elevation
52 ft
Coordinates
27° 10' 43" N , 33° 48' 3" E
KCC
Metar
Observation
HEGN 242200Z 32007KT CAVOK 30/12 Q1009 NOSIG
Station
Hurguada
Date/Time
2022-09-24 22:00:00
Wind direction
320°
Wind speed
07 kts
Lowest cloud amount
clouds and visibility OK
Temperature
30°C
Dew point
12°C
Humidity
33%
QNH
1009 hPa
Weather condition
n/a

Description

International airport serving the Red Sea resort of Hurghada.

Climatology

Hot Desert Climate (Köppen climate classification BWh) - Hot desert climates are typically found in the subtropics where there is unbroken sunshine for the whole year due to the stable descending air and high pressure, little or no precipitation. Maximum temperatures of 40°C to 45°C are not uncommon, particularly during the warmer months of the year. During colder periods of the year, night-time temperatures can drop to freezing or below due to the exceptional radiation loss under the clear skies. However, very rarely do temperatures drop far below freezing.

Runways

Designator Length Width Surface Rops
16/34 4000 45 ASP Yes/Yes

Airport map

Aerial View

SKYbrary Partners:

Safety knowledge contributed by: